Long Key, Florida
Current Conditions -  °F | °C
As of 6:53 AM on Monday 22 Dec 2014 (Local Time) from KMTH Reporting Station
Clear Clear  
Wind Chill: 74°   Ceiling: Unl
Heat Index: 74°   Visibility: 10mi
Dew Point: 70°   Wind: 5mph
Humidity: 87%   Direction: 150°SSE
Pressure: 30.01"   Gusts: NA
Location:  24.82°N, 80.82°W
Report Text: KMTH 221153Z AUTO 15004KT 10SM CLR 23/21 A3001 RMK AO2 SLP160 T02330211 10239 20233 53001 $
Loading
Personal Weather Stations






























Interactive Weather Map New forecast layout! Learn more

10-Day Weather Forecast

Advertisements
Track Severe Weather on mobile